»·PEaware :: AAL1097 KLAS-KSFO

AAL1097 :: KLAS-KSFO

FLIGHT INFORMATION

Flight Status: Arrived
Operator:
American Airlines
More flights by this operator :: More flights under this callsign
Pilot: Adam A. (5112)
Aircraft: BOEING 767-300
(B763)
More flights by this aircraft type
Origin: KLAS McCarran Intl
United States
Destination: KSFO San Francisco Intl
United States
More flights between these airports :: More routes between these airports
Route: +SHEAD9 OAL INYOE DYAMD2
File this flight plan on PilotEdge
Remarks:
Altitude:
(Current/Filed)
36,000ft
Speed:
(Current/Filed)
440kts
Departed: 31-Mar-16 06:17 PM
Arrived: 31-Mar-16 07:21 PM
Distance/Time
Traveled:
359nm/1:04
Distance/Time
To Go:
Arrived

Flight Plot

Page will automatically refresh every two minutes.


Map Options




Map Legend


Flown Route
Filed Route
Departure Airport
Arrival Airport
Navaid (VOR, NDB)
Fix

Horizontal Profiles

Position Reports

Time Latitude Longitude Heading Altitude Ground
Speed
31-Mar-16 17:40 36.081427 -115.145305 152 2193ft 0kts
31-Mar-16 17:41 36.079896 -115.147179 57 2193ft 0kts
31-Mar-16 17:42 36.082580 -115.153624 64 2193ft 0kts
31-Mar-16 17:43 36.082580 -115.153624 64 2193ft 0kts
31-Mar-16 17:44 36.082580 -115.153624 64 2193ft 0kts
31-Mar-16 17:45 36.082580 -115.153624 64 2193ft 0kts
31-Mar-16 17:46 36.082580 -115.153624 64 2193ft 0kts
31-Mar-16 17:47 36.082580 -115.153624 64 2193ft 0kts
31-Mar-16 17:48 36.082580 -115.153624 64 2193ft 0kts
31-Mar-16 17:49 36.082580 -115.153624 64 2193ft 0kts
31-Mar-16 17:50 36.082580 -115.153624 64 2193ft 0kts
31-Mar-16 17:51 36.082580 -115.153624 64 2193ft 0kts
31-Mar-16 17:52 36.082580 -115.153624 64 2193ft 0kts
31-Mar-16 17:53 36.082580 -115.153624 64 2193ft 0kts
31-Mar-16 17:54 36.082580 -115.153624 64 2193ft 0kts
31-Mar-16 17:55 36.082580 -115.153624 64 2193ft 0kts
31-Mar-16 17:56 36.082580 -115.153624 64 2193ft 0kts
31-Mar-16 17:57 36.082580 -115.153624 64 2193ft 0kts
31-Mar-16 17:58 36.082580 -115.153624 64 2193ft 0kts
31-Mar-16 17:59 36.082580 -115.153624 64 2193ft 0kts
31-Mar-16 18:00 36.082580 -115.153624 64 2193ft 0kts
31-Mar-16 18:01 36.082580 -115.153624 64 2193ft 0kts
31-Mar-16 18:02 36.082449 -115.153958 65 2193ft 2kts
31-Mar-16 18:03 36.082510 -115.154478 151 2193ft 0kts
31-Mar-16 18:04 36.082265 -115.154320 153 2193ft 5kts
31-Mar-16 18:05 36.080606 -115.154452 157 2193ft 21kts
31-Mar-16 18:06 36.078086 -115.153442 272 2193ft 5kts
31-Mar-16 18:07 36.078002 -115.161467 270 2193ft 22kts
31-Mar-16 18:08 36.078033 -115.163430 268 2193ft 0kts
31-Mar-16 18:09 36.080331 -115.164047 25 2193ft 44kts
31-Mar-16 18:10 36.119320 -115.148796 332 3503ft 207kts
31-Mar-16 18:11 36.120911 -115.223787 258 6259ft 257kts
31-Mar-16 18:12 36.085812 -115.301452 206 9015ft 296kts
31-Mar-16 18:13 36.027955 -115.371108 241 11420ft 317kts
31-Mar-16 18:14 35.977338 -115.472129 243 14021ft 362kts
31-Mar-16 18:15 35.959364 -115.598152 265 16539ft 389kts
31-Mar-16 18:16 35.937726 -115.732681 263 19447ft 411kts
31-Mar-16 18:17 35.913818 -115.873391 269 22012ft 427kts
31-Mar-16 18:18 35.940279 -116.009173 311 24748ft 398kts
31-Mar-16 18:19 36.015340 -116.107805 322 26821ft 401kts
31-Mar-16 18:20 36.097824 -116.203383 323 28677ft 414kts
31-Mar-16 18:21 36.182960 -116.301979 323 30353ft 426kts
31-Mar-16 18:22 36.270602 -116.403777 324 31765ft 440kts
31-Mar-16 18:23 36.364194 -116.512785 323 32071ft 477kts
31-Mar-16 18:24 36.460433 -116.625495 324 33864ft 475kts
31-Mar-16 18:25 36.555870 -116.737008 327 35287ft 472kts
31-Mar-16 18:26 36.663668 -116.823632 336 35969ft 462kts
31-Mar-16 18:27 36.773679 -116.907569 336 35981ft 467kts
31-Mar-16 18:28 36.884045 -116.991923 336 36029ft 466kts
31-Mar-16 18:29 36.994212 -117.076393 336 36088ft 466kts
31-Mar-16 18:30 37.103105 -117.159460 335 36076ft 466kts
31-Mar-16 18:31 37.213417 -117.244405 335 36077ft 466kts
31-Mar-16 18:32 37.323765 -117.329705 339 36071ft 462kts
31-Mar-16 18:33 37.438305 -117.401167 340 36067ft 462kts
31-Mar-16 18:34 37.552171 -117.474859 339 36064ft 462kts
31-Mar-16 18:35 37.648653 -117.584944 308 36091ft 497kts
31-Mar-16 18:36 37.684962 -117.757881 282 36062ft 526kts
31-Mar-16 18:37 37.715663 -117.936518 291 36026ft 518kts
31-Mar-16 18:38 37.753396 -118.111287 292 36024ft 518kts
31-Mar-16 18:39 37.791978 -118.285075 292 36018ft 518kts
31-Mar-16 18:40 37.830090 -118.460432 292 36089ft 516kts
31-Mar-16 18:41 37.866708 -118.630842 292 36122ft 473kts
31-Mar-16 18:42 37.890567 -118.794290 272 36179ft 493kts
31-Mar-16 18:43 37.872397 -118.967124 267 36170ft 496kts
31-Mar-16 18:44 37.852695 -119.139167 267 36162ft 496kts
31-Mar-16 18:45 37.832979 -119.310830 266 36165ft 496kts
31-Mar-16 18:46 37.812572 -119.483191 263 36163ft 494kts
31-Mar-16 18:47 37.791896 -119.654822 263 35312ft 493kts
31-Mar-16 18:48 37.771058 -119.825895 263 34290ft 492kts
31-Mar-16 18:49 37.750166 -119.995326 263 32618ft 487kts
31-Mar-16 18:50 37.732949 -120.134369 263 30866ft 486kts
31-Mar-16 18:51 37.713020 -120.295846 263 28578ft 482kts
31-Mar-16 18:52 37.692928 -120.458380 264 26578ft 459kts
31-Mar-16 18:53 37.677799 -120.587513 264 24038ft 437kts
31-Mar-16 18:54 37.660265 -120.736135 263 21289ft 465kts
31-Mar-16 18:55 37.641826 -120.888467 263 18460ft 420kts
31-Mar-16 18:56 37.623648 -121.030907 262 14864ft 384kts
31-Mar-16 18:57 37.607069 -121.156732 262 15039ft 340kts
31-Mar-16 18:58 37.591200 -121.276757 263 14924ft 366kts
31-Mar-16 18:59 37.576559 -121.404011 263 13632ft 355kts
31-Mar-16 19:00 37.562719 -121.522687 263 12277ft 317kts
31-Mar-16 19:01 37.549634 -121.628129 257 11966ft 303kts
31-Mar-16 19:02 37.525973 -121.728265 256 10701ft 285kts
31-Mar-16 19:03 37.503472 -121.822193 256 9021ft 278kts
31-Mar-16 19:04 37.493328 -121.914208 276 7579ft 267kts
31-Mar-16 19:05 37.497889 -122.000099 278 6695ft 234kts
31-Mar-16 19:06 37.502314 -122.078041 276 5212ft 236kts
31-Mar-16 19:07 37.525353 -122.147657 299 3575ft 240kts
31-Mar-16 19:08 37.554688 -122.217270 298 1712ft 191kts
31-Mar-16 19:09 37.572332 -122.265377 292 1314ft 134kts
31-Mar-16 19:10 37.589445 -122.305345 297 883ft 131kts
31-Mar-16 19:11 37.606390 -122.345976 297 269ft 128kts
31-Mar-16 19:12 37.618058 -122.373492 298 24ft 45kts
31-Mar-16 19:13 37.619020 -122.379226 295 24ft 18kts
31-Mar-16 19:14 37.616436 -122.379785 244 24ft 2kts
31-Mar-16 19:15 37.616719 -122.380496 300 24ft 0kts
31-Mar-16 19:16 37.616719 -122.380496 300 24ft 0kts
31-Mar-16 19:17 37.616719 -122.380496 300 24ft 0kts
31-Mar-16 19:18 37.616719 -122.380496 300 24ft 0kts
31-Mar-16 19:19 37.616719 -122.380496 300 24ft 0kts
31-Mar-16 19:20 37.616719 -122.380496 300 24ft 0kts
31-Mar-16 19:21 37.616719 -122.380496 300 24ft 0kts
31-Mar-16 19:22 37.616719 -122.380496 300 24ft 0kts
31-Mar-16 19:23 37.616719 -122.380496 300 24ft 0kts
31-Mar-16 19:24 37.616719 -122.380496 300 24ft 0kts
31-Mar-16 19:25 37.616719 -122.380496 300 24ft 0kts
31-Mar-16 19:26 37.616719 -122.380496 300 24ft 0kts
31-Mar-16 19:27 37.616719 -122.380496 300 24ft 0kts

Navigation Log

Ident Type
Flight plan parsing failed, navigation log unavailable